Time;durP1;ratioP1;P1;durP2;ratioP2;P2;SDS_P1;SDS_P2;PMS_P1;PMS_P2;Temp;Humidity;BMP_temperature;BMP_pressure;BME280_temperature;BME280_humidity;BME280_pressure;Samples;Min_cycle;Max_cycle;Signal;HPM_P1;HPM_P2
2024/03/09 00:03:56;;;;;;;5.60;3.60;;;;;;;0.75;66.38;99054.44;102683;1292;598784;-25
2024/03/09 00:12:26;;;;;;;6.80;4.20;;;;;;;0.27;67.20;99051.89;102684;1295;599989;-28
2024/03/09 00:14:54;;;;;;;8.10;4.60;;;;;;;0.06;68.07;99051.66;104895;1269;61273;-28
2024/03/09 00:25:01;;;;;;;10.20;3.40;;;;;;;-0.35;71.44;99051.31;102673;1294;599407;-27
2024/03/09 00:27:28;;;;;;;8.30;4.90;;;;;;;0.52;68.50;99053.98;105011;1270;61131;-27
2024/03/09 00:29:56;;;;;;;9.90;4.90;;;;;;;0.80;67.16;99053.05;104896;1267;61176;-26
2024/03/09 00:32:25;;;;;;;7.00;4.70;;;;;;;0.71;66.70;99051.33;104874;1267;69993;-26
2024/03/09 00:34:53;;;;;;;10.40;5.20;;;;;;;0.53;66.67;99053.09;104933;1269;74315;-26
2024/03/09 00:37:21;;;;;;;6.70;4.10;;;;;;;0.28;67.72;99048.97;104793;1272;72650;-26
2024/03/09 00:39:49;;;;;;;8.40;5.50;;;;;;;0.03;68.33;99043.58;104776;1263;263678;-26
2024/03/09 00:42:19;;;;;;;9.70;5.00;;;;;;;-0.19;69.01;99042.17;104872;1268;61263;-26
2024/03/09 00:44:47;;;;;;;12.40;5.50;;;;;;;-0.39;70.10;99042.73;105044;1263;70987;-26
2024/03/09 00:47:14;;;;;;;10.60;5.80;;;;;;;-0.54;70.69;99041.92;105145;1264;74298;-26
2024/03/09 00:57:23;;;;;;;8.60;5.10;;;;;;;0.70;66.89;99041.96;102749;1293;598716;-27
2024/03/09 00:59:52;;;;;;;8.40;4.40;;;;;;;0.54;66.95;99044.49;105024;1266;61183;-28
2024/03/09 01:02:20;;;;;;;8.20;5.30;;;;;;;0.26;67.93;99042.70;104909;1264;61237;-27
2024/03/09 01:04:50;;;;;;;10.20;5.40;;;;;;;0.02;69.15;99039.52;104923;1268;70954;-28
2024/03/09 01:07:20;;;;;;;13.00;6.30;;;;;;;-0.13;69.36;99037.53;104907;1266;74329;-28
2024/03/09 01:09:48;;;;;;;9.90;4.60;;;;;;;-0.28;70.33;99038.61;104846;1267;72626;-27
2024/03/09 01:12:17;;;;;;;11.90;5.90;;;;;;;-0.44;71.18;99037.80;104954;1263;61170;-27
2024/03/09 01:14:48;;;;;;;6.20;3.40;;;;;;;-0.57;71.77;99033.83;105073;1265;61738;-27
2024/03/09 01:17:21;;;;;;;8.80;5.30;;;;;;;0.06;70.85;99034.04;105066;1266;70960;-28
2024/03/09 01:19:52;;;;;;;6.80;4.40;;;;;;;0.73;68.23;99030.95;104879;1264;74313;-28
2024/03/09 01:22:21;;;;;;;9.80;4.10;;;;;;;0.84;67.18;99028.92;104848;1266;72643;-27
2024/03/09 01:24:52;;;;;;;11.20;5.70;;;;;;;0.57;67.82;99028.00;105097;1264;61168;-28
2024/03/09 01:27:20;;;;;;;8.30;5.10;;;;;;;0.31;68.44;99026.30;105140;1266;61161;-28
2024/03/09 01:29:47;;;;;;;13.70;6.00;;;;;;;0.08;68.89;99024.43;105127;1264;73039;-28
2024/03/09 01:39:56;;;;;;;5.70;3.80;;;;;;;-0.27;71.58;99020.12;102699;1292;599362;-28
2024/03/09 01:50:10;;;;;;;12.80;5.30;;;;;;;0.49;67.25;99023.17;102663;1293;600048;-25
2024/03/09 01:59:21;;;;;;;7.50;4.60;;;;;;;-0.34;70.09;99021.76;102713;1295;600329;-27
2024/03/09 02:01:50;;;;;;;9.00;5.60;;;;;;;-0.50;70.57;99019.79;104896;1270;61347;-28
2024/03/09 02:04:18;;;;;;;7.40;4.40;;;;;;;-0.70;70.99;99019.63;105001;1266;61216;-27
2024/03/09 02:14:22;;;;;;;12.20;5.50;;;;;;;0.43;67.82;99018.46;102718;1293;600151;-25
2024/03/09 02:16:49;;;;;;;7.70;4.30;;;;;;;0.15;68.27;99021.08;105026;1267;61116;-27
2024/03/09 02:19:18;;;;;;;10.40;5.30;;;;;;;-0.04;68.72;99019.80;104909;1270;61208;-28
2024/03/09 02:21:46;;;;;;;10.10;6.20;;;;;;;-0.26;69.22;99023.15;104927;1266;71314;-28
2024/03/09 02:24:19;;;;;;;13.00;6.00;;;;;;;-0.44;70.21;99023.64;104818;1272;74337;-28
2024/03/09 02:26:47;;;;;;;14.50;6.10;;;;;;;-0.63;70.77;99020.92;104794;1273;72675;-28
2024/03/09 02:36:52;;;;;;;8.40;5.90;;;;;;;0.36;68.56;99029.01;102666;1295;600089;-25
2024/03/09 02:39:20;;;;;;;13.40;6.50;;;;;;;0.57;66.71;99026.95;105251;1263;61238;-27
2024/03/09 02:41:47;;;;;;;9.70;5.50;;;;;;;0.29;67.19;99028.23;105251;1267;61096;-28
2024/03/09 02:44:15;;;;;;;11.10;5.50;;;;;;;0.03;67.87;99028.23;105195;1260;72210;-28
2024/03/09 02:46:44;;;;;;;10.80;6.30;;;;;;;-0.28;68.85;99024.09;105213;1264;73746;-28
2024/03/09 02:49:11;;;;;;;10.30;6.10;;;;;;;-0.46;69.54;99025.09;105162;1267;72704;-28
2024/03/09 02:59:19;;;;;;;8.10;4.80;;;;;;;-1.09;73.40;99021.15;102763;1293;599410;-27
2024/03/09 03:01:47;;;;;;;9.20;5.10;;;;;;;-0.31;71.40;99021.80;104842;1265;61175;-28
2024/03/09 03:11:51;;;;;;;11.30;5.60;;;;;;;-0.32;70.11;99013.66;102652;1293;600049;-27
2024/03/09 03:14:20;;;;;;;12.60;5.50;;;;;;;-0.56;70.93;99013.52;104883;1267;61062;-27
2024/03/09 03:16:48;;;;;;;11.50;7.00;;;;;;;-0.71;71.46;99012.15;104892;1267;61111;-27
2024/03/09 03:19:16;;;;;;;12.80;7.10;;;;;;;-0.89;71.91;99015.70;104956;1267;71244;-27
2024/03/09 03:29:20;;;;;;;9.00;5.70;;;;;;;0.21;68.62;99016.45;102975;1289;600205;-27
2024/03/09 03:31:47;;;;;;;10.00;6.00;;;;;;;-0.01;68.85;99010.13;105219;1265;61088;-28
2024/03/09 03:34:15;;;;;;;10.90;6.10;;;;;;;-0.28;69.64;99011.81;105143;1265;61056;-28
2024/03/09 03:36:45;;;;;;;11.60;5.40;;;;;;;-0.53;70.63;99006.07;105650;1263;72209;-28
2024/03/09 03:39:12;;;;;;;12.40;6.50;;;;;;;-0.76;71.59;99006.02;105589;1260;73402;-28
2024/03/09 03:49:20;;;;;;;10.50;4.40;;;;;;;-1.21;74.15;99009.46;102757;1293;598699;-28
2024/03/09 03:51:48;;;;;;;11.00;5.40;;;;;;;-0.41;71.96;99008.18;104969;1264;61212;-28
2024/03/09 03:54:15;;;;;;;11.10;6.20;;;;;;;0.10;69.35;99008.32;104924;1264;61123;-28
2024/03/09 03:56:43;;;;;;;12.70;6.60;;;;;;;0.14;68.28;99012.95;104992;1269;72163;-28
2024/03/09 03:59:10;;;;;;;9.80;6.70;;;;;;;-0.08;68.57;99013.10;104894;1265;72720;-28
2024/03/09 04:01:39;;;;;;;11.30;6.30;;;;;;;-0.30;69.12;99011.52;104885;1263;72689;-28
2024/03/09 04:11:49;;;;;;;11.30;6.70;;;;;;;-1.05;71.86;99006.70;102724;1292;600215;-27
2024/03/09 04:14:17;;;;;;;16.40;6.70;;;;;;;-1.23;72.65;99004.57;104844;1272;61263;-28
2024/03/09 04:16:44;;;;;;;11.00;5.50;;;;;;;-1.42;73.46;99006.58;104837;1273;61174;-28
2024/03/09 04:19:13;;;;;;;10.70;5.80;;;;;;;-0.87;73.24;99006.58;104715;1272;70691;-28
2024/03/09 04:21:41;;;;;;;10.20;6.00;;;;;;;-0.19;70.23;99011.28;104829;1267;74297;-28
2024/03/09 04:24:09;;;;;;;11.20;6.30;;;;;;;-0.06;68.92;99017.13;104812;1267;72760;-28
2024/03/09 04:26:37;;;;;;;14.20;7.10;;;;;;;-0.17;68.85;99012.25;105030;1268;61225;-28
2024/03/09 04:29:04;;;;;;;14.30;7.80;;;;;;;-0.38;69.48;99016.60;105120;1266;61105;-28
2024/03/09 04:31:32;;;;;;;15.00;7.00;;;;;;;-0.59;70.19;99016.02;105173;1261;70952;-28
2024/03/09 04:34:01;;;;;;;11.90;6.70;;;;;;;-0.76;71.01;99015.41;105254;1264;74321;-28
2024/03/09 04:36:29;;;;;;;16.50;7.00;;;;;;;-0.94;71.28;99017.58;105176;1264;72623;-28
2024/03/09 04:39:00;;;;;;;13.30;6.30;;;;;;;-1.13;72.21;99014.30;105134;1262;61060;-28
2024/03/09 04:41:28;;;;;;;15.70;7.10;;;;;;;-1.32;72.50;99016.45;105249;1263;61032;-28
2024/03/09 04:43:56;;;;;;;12.40;6.00;;;;;;;-1.52;73.88;99017.96;105190;1266;72998;-28
2024/03/09 04:46:24;;;;;;;9.10;5.00;;;;;;;-1.05;73.66;99021.34;105215;1263;74302;-28
2024/03/09 04:48:51;;;;;;;12.60;7.50;;;;;;;-0.12;71.40;99021.59;105175;1263;71457;-28
2024/03/09 04:51:19;;;;;;;16.40;7.30;;;;;;;0.24;69.20;99029.63;105185;1263;61099;-28
2024/03/09 04:59:51;;;;;;;11.70;6.10;;;;;;;-0.08;69.20;99033.93;102712;1295;600967;-27
2024/03/09 05:02:19;;;;;;;10.10;5.70;;;;;;;-0.27;69.19;99033.95;105035;1267;61317;-28
2024/03/09 05:04:46;;;;;;;10.40;6.00;;;;;;;-0.39;69.92;99032.83;104817;1267;61192;-28
2024/03/09 05:07:14;;;;;;;9.00;4.80;;;;;;;-0.51;70.22;99034.29;105024;1267;72185;-28
2024/03/09 05:09:41;;;;;;;10.90;5.50;;;;;;;-0.61;70.65;99038.60;104750;1270;74309;-27
2024/03/09 05:12:09;;;;;;;11.20;6.40;;;;;;;-0.64;71.10;99039.54;104681;1269;72598;-28
2024/03/09 05:14:36;;;;;;;10.30;5.30;;;;;;;-0.67;71.39;99041.86;105042;1257;161560;-28
2024/03/09 05:17:04;;;;;;;16.20;6.20;;;;;;;-0.00;70.88;99045.40;105395;1263;61151;-28
2024/03/09 05:27:12;;;;;;;13.50;6.60;;;;;;;1.31;64.57;99053.30;102647;1292;598745;-28
2024/03/09 05:37:24;;;;;;;11.00;5.90;;;;;;;1.01;66.17;99057.81;102660;1292;600203;-28
2024/03/09 05:39:52;;;;;;;13.80;8.50;;;;;;;0.90;66.63;99060.48;104895;1266;61178;-28
2024/03/09 05:50:00;;;;;;;8.30;5.50;;;;;;;0.94;67.84;99064.94;102698;1292;598635;-28
2024/03/09 05:52:28;;;;;;;14.90;8.20;;;;;;;1.76;66.17;99067.40;104997;1269;61163;-28
2024/03/09 05:54:56;;;;;;;12.40;7.60;;;;;;;2.42;63.83;99064.40;105109;1269;61119;-27
2024/03/09 05:57:23;;;;;;;12.80;7.20;;;;;;;2.51;63.06;99068.08;104840;1270;71002;-27
2024/03/09 05:59:52;;;;;;;8.40;5.50;;;;;;;2.35;63.16;99066.78;104862;1267;74346;-26
2024/03/09 06:02:19;;;;;;;16.00;7.80;;;;;;;2.14;63.99;99069.79;105075;1267;72694;-27
2024/03/09 06:04:47;;;;;;;13.10;7.70;;;;;;;1.85;65.27;99073.34;104907;1269;274285;-27
2024/03/09 06:14:55;;;;;;;15.70;8.80;;;;;;;1.43;67.65;99082.02;102845;1290;599423;-27
2024/03/09 06:17:22;;;;;;;21.50;10.50;;;;;;;1.44;67.73;99083.35;105066;1264;61113;-28
2024/03/09 06:19:50;;;;;;;12.10;6.60;;;;;;;1.63;67.80;99083.40;105208;1260;61109;-28
2024/03/09 06:22:18;;;;;;;18.70;9.60;;;;;;;2.53;66.05;99081.18;105238;1260;72186;-28
2024/03/09 06:24:46;;;;;;;12.60;6.60;;;;;;;3.06;64.34;99087.20;105238;1261;74290;-28
2024/03/09 06:34:44;;;;;;;18.50;10.10;;;;;;;2.63;63.60;99079.35;102683;1290;601795;-25
2024/03/09 06:37:12;;;;;;;11.20;7.70;;;;;;;2.72;63.34;99080.79;104846;1266;61116;-28
2024/03/09 06:39:39;;;;;;;13.50;8.50;;;;;;;2.74;63.66;99078.47;108616;1266;58816;-26
2024/03/09 06:42:09;;;;;;;19.30;10.50;;;;;;;2.78;63.38;99077.92;108647;1266;72763;-27
2024/03/09 06:44:39;;;;;;;12.80;7.60;;;;;;;2.85;63.07;99081.90;108710;1265;73054;-27
2024/03/09 06:47:06;;;;;;;20.30;10.50;;;;;;;2.71;63.76;99080.67;108628;1265;71409;-27
2024/03/09 06:49:37;;;;;;;25.30;10.10;;;;;;;2.58;64.51;99082.67;108461;1262;58885;-27
2024/03/09 06:52:05;;;;;;;13.20;8.30;;;;;;;2.58;63.62;99077.39;108800;1262;59999;-26
2024/03/09 06:54:32;;;;;;;17.10;8.80;;;;;;;2.69;63.78;99081.42;108737;1262;71061;-27
2024/03/09 06:57:00;;;;;;;15.00;7.20;;;;;;;2.89;63.39;99078.77;108764;1262;74353;-27
2024/03/09 06:59:27;;;;;;;15.90;8.60;;;;;;;3.13;61.66;99083.25;108733;1262;72652;-26
2024/03/09 07:01:59;;;;;;;11.60;7.50;;;;;;;3.12;61.58;99083.33;108758;1262;59280;-26
2024/03/09 07:04:27;;;;;;;17.20;9.80;;;;;;;3.24;61.69;99085.66;108803;1262;58782;-27
2024/03/09 07:06:56;;;;;;;13.50;7.20;;;;;;;3.43;60.10;99085.05;108819;1262;73053;-26
2024/03/09 07:09:24;;;;;;;15.30;8.60;;;;;;;3.47;60.55;99088.07;108781;1262;74348;-27
2024/03/09 07:11:52;;;;;;;22.90;10.60;;;;;;;3.47;59.97;99087.59;108722;1265;71791;-27
2024/03/09 07:14:21;;;;;;;18.90;10.20;;;;;;;3.70;60.04;99084.98;108672;1264;58877;-27
2024/03/09 07:16:51;;;;;;;19.60;10.30;;;;;;;3.78;59.33;99090.95;108747;1264;58807;-26
2024/03/09 07:19:20;;;;;;;20.60;9.60;;;;;;;4.03;59.29;99092.71;108736;1264;73052;-26
2024/03/09 07:21:47;;;;;;;18.20;10.90;;;;;;;4.23;58.11;99098.02;108636;1265;74576;-27
2024/03/09 07:24:15;;;;;;;13.70;8.20;;;;;;;4.48;57.66;99095.44;108733;1265;72700;-26
2024/03/09 07:26:42;;;;;;;17.60;9.90;;;;;;;4.43;56.10;99095.04;108726;1264;59301;-26
2024/03/09 07:29:11;;;;;;;18.30;10.80;;;;;;;4.61;55.76;99095.41;108620;1264;60045;-26
2024/03/09 07:31:38;;;;;;;14.40;8.80;;;;;;;4.89;55.33;99099.86;108847;1261;73052;-26
2024/03/09 07:34:06;;;;;;;20.40;10.30;;;;;;;5.23;54.70;99101.20;108839;1262;74336;-27
2024/03/09 07:36:33;;;;;;;16.50;8.50;;;;;;;5.23;54.22;99102.73;108843;1262;72752;-27
2024/03/09 07:39:00;;;;;;;17.00;10.10;;;;;;;5.26;54.08;99103.79;108850;1262;58803;-27
2024/03/09 07:41:28;;;;;;;17.10;9.30;;;;;;;5.53;53.37;99102.52;108889;1261;58769;-27
2024/03/09 07:43:55;;;;;;;14.90;8.30;;;;;;;6.02;52.77;99101.66;108900;1261;71894;-26
2024/03/09 07:46:24;;;;;;;14.20;8.80;;;;;;;6.26;51.72;99105.75;108927;1262;74322;-26
2024/03/09 07:48:51;;;;;;;14.40;9.20;;;;;;;6.08;52.28;99105.65;108749;1261;71144;-27
2024/03/09 07:51:20;;;;;;;14.90;8.40;;;;;;;6.16;51.52;99101.89;108817;1261;58836;-26
2024/03/09 07:53:47;;;;;;;14.30;8.90;;;;;;;6.56;50.98;99101.64;108854;1261;58793;-26
2024/03/09 07:56:16;;;;;;;15.40;9.20;;;;;;;6.71;50.96;99098.23;108901;1261;73102;-26
2024/03/09 07:58:44;;;;;;;15.90;8.50;;;;;;;6.83;49.12;99099.74;108869;1261;74884;-26
2024/03/09 08:01:12;;;;;;;17.00;9.60;;;;;;;6.77;48.87;99098.90;108869;1262;72669;-27
2024/03/09 08:03:40;;;;;;;14.40;8.90;;;;;;;7.02;49.05;99097.64;108833;1261;59065;-26
2024/03/09 08:06:10;;;;;;;13.40;8.50;;;;;;;6.99;48.52;99097.63;108900;1261;60193;-26
2024/03/09 08:08:37;;;;;;;12.10;7.80;;;;;;;7.06;48.56;99098.09;108921;1262;74943;-26
2024/03/09 08:11:05;;;;;;;13.70;8.60;;;;;;;7.19;48.86;99096.20;108908;1262;73587;-27
2024/03/09 08:13:35;;;;;;;13.60;8.00;;;;;;;7.50;48.19;99094.40;108760;1262;71704;-27
2024/03/09 08:16:03;;;;;;;16.20;9.30;;;;;;;7.45;47.70;99093.55;108748;1262;60268;-27
2024/03/09 08:18:31;;;;;;;15.30;9.40;;;;;;;7.41;47.52;99092.46;108776;1262;58776;-27
2024/03/09 08:20:59;;;;;;;14.60;7.70;;;;;;;7.41;46.88;99092.25;108821;1262;73075;-27
2024/03/09 08:23:28;;;;;;;12.20;8.10;;;;;;;7.48;46.71;99095.98;108827;1262;74562;-27
2024/03/09 08:25:55;;;;;;;13.90;8.20;;;;;;;7.63;45.81;99097.21;108752;1262;72777;-27
2024/03/09 08:28:23;;;;;;;13.60;7.10;;;;;;;7.66;45.37;99096.65;108742;1262;60161;-27
2024/03/09 08:30:50;;;;;;;9.10;5.70;;;;;;;7.52;45.37;99091.01;108824;1262;58943;-27
2024/03/09 08:33:22;;;;;;;14.20;7.30;;;;;;;7.46;45.53;99091.48;108757;1261;71999;-27
2024/03/09 08:35:49;;;;;;;7.60;5.10;;;;;;;7.79;44.76;99089.88;108977;1259;74323;-27
2024/03/09 08:38:16;;;;;;;11.60;7.60;;;;;;;7.53;44.71;99090.96;108959;1258;72695;-27
2024/03/09 08:40:44;;;;;;;16.30;9.00;;;;;;;8.02;44.09;99088.49;108930;1258;59185;-27
2024/03/09 08:43:11;;;;;;;13.90;7.80;;;;;;;7.92;43.91;99089.33;109038;1259;58784;-27
2024/03/09 08:45:42;;;;;;;11.50;6.70;;;;;;;7.79;45.18;99091.77;109013;1258;71795;-27
2024/03/09 08:48:12;;;;;;;12.00;7.30;;;;;;;8.32;43.56;99090.53;109027;1259;73458;-27
2024/03/09 08:50:39;;;;;;;15.20;7.50;;;;;;;8.16;43.83;99088.02;108998;1258;72669;-27
2024/03/09 08:53:07;;;;;;;16.10;9.00;;;;;;;8.24;43.18;99087.79;108981;1258;58815;-27
2024/03/09 08:55:35;;;;;;;21.50;8.50;;;;;;;8.78;42.70;99087.79;109024;1259;58849;-27
2024/03/09 08:58:05;;;;;;;13.30;9.10;;;;;;;9.08;42.22;99088.73;108917;1258;73058;-27
2024/03/09 09:00:33;;;;;;;13.50;8.00;;;;;;;9.50;41.99;99088.49;109057;1258;76491;-27
2024/03/09 09:03:05;;;;;;;13.30;8.30;;;;;;;9.21;40.87;99089.98;109071;1257;71388;-27
2024/03/09 09:05:34;;;;;;;7.50;5.20;;;;;;;9.38;40.02;99086.94;108906;1257;61608;-27
2024/03/09 09:08:02;;;;;;;12.40;8.00;;;;;;;8.87;39.13;99089.17;108980;1257;58760;-27
2024/03/09 09:10:29;;;;;;;15.70;8.30;;;;;;;9.00;39.30;99085.13;109019;1258;72784;-27
2024/03/09 09:12:57;;;;;;;11.60;7.20;;;;;;;9.56;38.67;99084.77;109023;1259;74336;-27
2024/03/09 09:15:24;;;;;;;10.80;6.80;;;;;;;9.93;37.09;99083.00;108974;1259;71601;-27
2024/03/09 09:17:55;;;;;;;9.60;6.20;;;;;;;10.16;36.72;99081.52;108978;1259;58889;-27
2024/03/09 09:20:24;;;;;;;10.20;6.20;;;;;;;9.85;37.52;99080.14;108992;1259;60963;-28
2024/03/09 09:22:53;;;;;;;12.60;6.80;;;;;;;10.63;37.49;99079.71;108997;1259;73132;-27
2024/03/09 09:25:25;;;;;;;15.80;8.40;;;;;;;10.56;37.38;99080.84;109018;1259;74760;-27
2024/03/09 09:27:59;;;;;;;8.40;5.70;;;;;;;10.80;36.86;99076.08;108936;1262;73579;-27
2024/03/09 09:30:27;;;;;;;10.80;6.30;;;;;;;10.58;35.79;99077.30;108996;1259;58846;-27
2024/03/09 09:32:57;;;;;;;10.60;6.50;;;;;;;10.69;35.09;99070.42;109025;1259;60874;-28
2024/03/09 09:35:24;;;;;;;7.60;4.20;;;;;;;11.12;34.13;99071.63;109000;1259;74223;-27
2024/03/09 09:37:53;;;;;;;7.00;4.10;;;;;;;11.37;32.41;99068.64;108948;1259;74345;-27
2024/03/09 09:40:20;;;;;;;9.50;5.00;;;;;;;10.30;34.26;99068.77;108930;1259;70669;-27
2024/03/09 09:42:48;;;;;;;9.00;5.10;;;;;;;10.70;34.20;99068.05;108965;1259;62186;-27
2024/03/09 09:45:21;;;;;;;7.20;5.00;;;;;;;10.81;33.48;99069.45;108925;1259;60055;-27
2024/03/09 09:47:48;;;;;;;7.10;4.30;;;;;;;11.37;32.54;99062.39;108854;1259;73050;-27
2024/03/09 09:50:18;;;;;;;6.90;4.00;;;;;;;11.36;31.07;99068.23;109049;1259;74313;-27
2024/03/09 09:52:50;;;;;;;6.70;4.80;;;;;;;11.50;30.30;99071.16;108973;1259;72525;-27
2024/03/09 09:55:21;;;;;;;11.50;5.70;;;;;;;11.51;31.59;99066.27;108808;1259;59346;-27
2024/03/09 09:57:51;;;;;;;11.40;6.20;;;;;;;10.63;32.71;99066.91;108946;1265;59914;-27
2024/03/09 10:00:23;;;;;;;13.70;5.20;;;;;;;10.56;32.18;99065.20;109024;1259;75516;-27
2024/03/09 10:02:55;;;;;;;7.60;5.30;;;;;;;11.50;31.46;99069.80;108977;1259;73591;-27
2024/03/09 10:05:28;;;;;;;11.30;5.00;;;;;;;11.53;31.52;99063.16;108785;1259;74225;-27
2024/03/09 10:07:59;;;;;;;7.70;4.30;;;;;;;11.75;30.72;99063.55;108873;1259;59953;-27
2024/03/09 10:10:31;;;;;;;7.10;4.00;;;;;;;11.65;31.12;99062.23;108871;1259;60951;-28
2024/03/09 10:13:13;;;;;;;6.20;3.70;;;;;;;11.69;31.28;99056.17;108934;1259;74114;-28
2024/03/09 10:15:49;;;;;;;7.40;4.40;;;;;;;11.84;31.53;99059.83;108939;1258;74324;-28
2024/03/09 10:18:16;;;;;;;6.30;4.30;;;;;;;11.57;31.14;99057.73;108892;1258;73412;-27
2024/03/09 10:20:44;;;;;;;9.10;4.10;;;;;;;12.29;30.26;99061.53;109013;1259;62069;-27
2024/03/09 10:23:15;;;;;;;6.10;4.00;;;;;;;12.37;30.45;99064.27;109048;1263;58719;-27
2024/03/09 10:25:43;;;;;;;7.90;5.20;;;;;;;10.95;32.49;99063.05;109052;1258;74565;-27
2024/03/09 10:28:10;;;;;;;8.90;5.10;;;;;;;11.53;31.83;99061.15;109017;1260;74777;-27
2024/03/09 10:30:38;;;;;;;5.60;3.90;;;;;;;12.40;30.80;99058.45;108998;1259;74740;-27
2024/03/09 10:33:10;;;;;;;5.60;4.00;;;;;;;12.43;29.72;99054.66;109033;1259;60079;-27
2024/03/09 10:35:40;;;;;;;10.20;3.60;;;;;;;12.80;29.69;99057.54;108857;1259;61826;-28
2024/03/09 10:38:08;;;;;;;7.10;4.20;;;;;;;12.81;30.13;99061.19;108949;1258;72842;-27
2024/03/09 10:40:36;;;;;;;8.40;3.90;;;;;;;13.13;28.93;99056.27;109048;1259;73074;-27
2024/03/09 10:43:04;;;;;;;10.30;4.50;;;;;;;13.11;28.88;99052.24;109033;1259;72671;-27
2024/03/09 10:45:33;;;;;;;5.20;3.50;;;;;;;12.77;29.19;99047.99;108853;1259;60103;-27
2024/03/09 10:48:05;;;;;;;6.50;4.10;;;;;;;12.74;29.38;99052.63;109044;1259;59983;-27
2024/03/09 10:50:40;;;;;;;9.40;4.50;;;;;;;13.37;28.59;99047.23;108919;1264;73855;-27
2024/03/09 10:53:07;;;;;;;5.80;4.30;;;;;;;13.12;29.55;99048.30;108922;1259;76600;-27
2024/03/09 10:56:18;;;;;;;5.50;3.70;;;;;;;12.05;30.70;99046.48;109007;1258;71222;-27
2024/03/09 10:58:45;;;;;;;5.30;3.80;;;;;;;11.74;31.23;99040.45;109004;1259;58795;-27
2024/03/09 11:01:17;;;;;;;7.60;4.70;;;;;;;11.94;31.02;99042.42;108983;1258;60482;-27
2024/03/09 11:03:51;;;;;;;8.70;4.60;;;;;;;11.96;31.44;99043.31;108977;1260;75413;-27
2024/03/09 11:06:19;;;;;;;5.90;4.30;;;;;;;12.63;30.74;99043.50;108973;1260;73179;-27
2024/03/09 11:08:56;;;;;;;6.60;3.80;;;;;;;13.16;28.84;99046.73;108958;1259;72500;-27
2024/03/09 11:11:25;;;;;;;6.00;3.70;;;;;;;13.60;28.31;99045.68;108935;1259;58983;-27
2024/03/09 11:13:55;;;;;;;4.50;2.80;;;;;;;13.67;28.02;99038.77;108864;1258;59981;-27
2024/03/09 11:16:27;;;;;;;6.90;4.50;;;;;;;13.45;28.54;99034.85;109014;1258;72811;-27
2024/03/09 11:18:57;;;;;;;4.20;3.20;;;;;;;13.54;28.51;99038.92;108997;1259;74211;-27
2024/03/09 11:21:26;;;;;;;6.50;4.40;;;;;;;13.06;28.59;99039.51;108935;1259;71821;-27
2024/03/09 11:23:59;;;;;;;8.90;4.30;;;;;;;13.11;28.62;99037.08;108744;1259;61602;-27
2024/03/09 11:26:27;;;;;;;5.50;3.60;;;;;;;13.59;28.10;99029.95;108906;1259;59232;-27
2024/03/09 11:28:57;;;;;;;5.00;3.50;;;;;;;14.19;27.84;99033.82;109013;1259;75871;-27
2024/03/09 11:31:28;;;;;;;6.30;4.10;;;;;;;13.89;27.52;99026.21;108973;1260;74335;-27
2024/03/09 11:34:05;;;;;;;5.70;3.80;;;;;;;13.13;28.37;99028.69;108928;1260;72689;-27
2024/03/09 11:36:42;;;;;;;5.60;3.20;;;;;;;13.24;28.14;99028.73;108963;1259;61027;-27
2024/03/09 11:39:10;;;;;;;4.90;3.60;;;;;;;13.47;27.91;99031.34;108960;1259;60714;-27
2024/03/09 11:41:46;;;;;;;4.90;2.90;;;;;;;13.61;27.84;99025.58;108908;1260;75910;-27
2024/03/09 11:44:18;;;;;;;6.10;3.40;;;;;;;13.43;27.74;99029.34;108879;1259;74351;-27
2024/03/09 11:46:47;;;;;;;4.20;2.70;;;;;;;13.42;28.00;99027.14;108862;1259;74717;-27
2024/03/09 11:49:15;;;;;;;6.50;3.50;;;;;;;13.35;28.12;99025.98;108853;1260;59670;-27
2024/03/09 11:51:43;;;;;;;5.90;3.10;;;;;;;13.26;27.97;99022.77;108988;1260;58872;-27
2024/03/09 11:54:11;;;;;;;9.30;3.40;;;;;;;13.12;28.05;99021.88;108998;1259;74812;-27
2024/03/09 11:56:40;;;;;;;5.70;3.40;;;;;;;12.73;29.01;99021.05;109003;1264;74482;-27
2024/03/09 11:59:10;;;;;;;6.90;3.80;;;;;;;12.04;30.02;99019.08;108834;1259;74198;-27
2024/03/09 12:01:42;;;;;;;7.00;3.70;;;;;;;12.09;29.42;99022.13;108959;1260;60890;-27
2024/03/09 12:04:10;;;;;;;4.90;3.10;;;;;;;12.03;29.51;99019.71;108948;1260;61438;-27
2024/03/09 12:06:42;;;;;;;4.90;2.80;;;;;;;11.87;29.67;99019.16;108936;1259;75860;-27
2024/03/09 12:09:12;;;;;;;9.00;3.00;;;;;;;11.94;29.51;99019.80;109010;1258;75278;-27
2024/03/09 12:11:45;;;;;;;5.40;2.90;;;;;;;12.22;29.21;99014.09;108945;1260;73654;-27
2024/03/09 12:14:14;;;;;;;5.40;2.80;;;;;;;12.48;28.97;99016.98;108969;1260;58978;-27
2024/03/09 12:16:42;;;;;;;6.10;2.60;;;;;;;12.63;28.63;99015.67;108951;1259;58692;-27
2024/03/09 12:19:11;;;;;;;3.80;2.40;;;;;;;12.58;28.98;99008.91;108876;1260;71831;-27
2024/03/09 12:21:39;;;;;;;4.20;2.50;;;;;;;12.29;29.42;99004.40;108904;1259;73077;-28
2024/03/09 12:24:07;;;;;;;6.40;3.10;;;;;;;11.98;29.27;99007.66;108936;1261;72086;-27
2024/03/09 12:26:35;;;;;;;7.10;3.20;;;;;;;11.86;29.93;99004.67;108919;1259;58891;-27
2024/03/09 12:29:04;;;;;;;2.80;2.50;;;;;;;11.52;29.83;99007.05;108960;1260;59822;-27
2024/03/09 12:31:33;;;;;;;4.20;2.80;;;;;;;11.62;30.31;99004.59;108882;1260;74984;-27
2024/03/09 12:34:04;;;;;;;4.40;2.80;;;;;;;11.81;30.23;99001.79;108823;1260;74312;-27
2024/03/09 12:36:32;;;;;;;9.50;3.50;;;;;;;11.54;30.33;98998.91;108964;1260;72246;-27
2024/03/09 12:39:11;;;;;;;5.00;2.80;;;;;;;11.64;30.10;99002.94;108959;1260;60040;-27
2024/03/09 12:41:38;;;;;;;5.50;2.70;;;;;;;11.91;29.94;99002.98;108855;1260;61625;-27
2024/03/09 12:44:06;;;;;;;4.60;3.00;;;;;;;11.85;30.11;98999.15;108902;1260;72385;-27
2024/03/09 12:46:34;;;;;;;6.60;3.40;;;;;;;11.27;30.49;98993.35;108964;1260;75896;-27
2024/03/09 12:49:12;;;;;;;5.20;2.60;;;;;;;11.23;30.94;98995.27;108960;1259;72106;-27
2024/03/09 12:51:40;;;;;;;6.10;2.50;;;;;;;11.36;29.87;98996.98;108870;1260;62197;-27
2024/03/09 12:54:09;;;;;;;3.50;2.20;;;;;;;11.74;30.14;98994.38;108811;1260;59073;-27
2024/03/09 12:56:37;;;;;;;9.50;2.30;;;;;;;11.93;30.01;98996.42;108926;1260;74724;-27
2024/03/09 12:59:08;;;;;;;4.90;3.00;;;;;;;11.83;30.37;98993.80;108926;1260;74333;-28
2024/03/09 13:01:36;;;;;;;4.90;2.80;;;;;;;11.95;29.35;98995.16;108924;1260;74815;-27
2024/03/09 13:04:08;;;;;;;4.90;2.60;;;;;;;12.04;29.51;98993.38;108947;1260;61483;-27
2024/03/09 13:06:37;;;;;;;4.10;2.60;;;;;;;12.19;29.42;98995.52;108934;1260;62225;-27
2024/03/09 13:09:04;;;;;;;5.40;2.70;;;;;;;12.18;29.84;98995.29;108927;1259;74867;-27
2024/03/09 13:11:33;;;;;;;11.80;3.40;;;;;;;11.91;30.59;98991.02;108936;1260;75907;-27
2024/03/09 13:14:04;;;;;;;4.70;2.40;;;;;;;11.62;31.32;98989.19;108838;1260;74265;-27
2024/03/09 13:16:34;;;;;;;4.30;2.80;;;;;;;11.51;32.12;98988.20;108889;1260;60432;-27
2024/03/09 13:19:07;;;;;;;4.50;2.60;;;;;;;11.67;31.54;98986.14;108836;1260;60015;-27
2024/03/09 13:21:37;;;;;;;5.00;2.40;;;;;;;11.71;31.36;98989.98;108828;1260;73885;-27
2024/03/09 13:24:13;;;;;;;5.40;2.60;;;;;;;11.58;31.73;98981.17;108906;1259;75910;-28
2024/03/09 13:26:44;;;;;;;7.30;3.60;;;;;;;11.31;31.40;98983.15;108891;1260;72892;-27
2024/03/09 13:29:13;;;;;;;5.20;2.40;;;;;;;11.24;32.05;98982.47;108863;1260;59588;-27
2024/03/09 13:31:45;;;;;;;5.50;3.20;;;;;;;11.44;32.26;98983.42;108835;1259;60028;-27
2024/03/09 13:34:16;;;;;;;7.60;3.20;;;;;;;11.37;33.19;98981.00;108869;1260;71607;-27
2024/03/09 13:36:46;;;;;;;6.20;3.50;;;;;;;11.22;31.78;98980.22;108839;1260;73100;-26
2024/03/09 13:39:17;;;;;;;5.00;3.10;;;;;;;11.19;32.60;98979.08;108812;1260;71101;-27
2024/03/09 13:41:48;;;;;;;6.90;3.40;;;;;;;11.48;32.39;98979.55;108843;1261;58906;-27
2024/03/09 13:44:23;;;;;;;4.90;2.70;;;;;;;11.67;32.00;98977.42;108902;1260;58870;-27
2024/03/09 13:46:54;;;;;;;4.50;2.70;;;;;;;11.72;31.71;98974.58;108912;1260;71663;-27
2024/03/09 13:49:25;;;;;;;5.20;3.20;;;;;;;11.76;31.52;98978.56;108861;1260;74503;-27
2024/03/09 13:51:58;;;;;;;4.60;3.00;;;;;;;11.38;31.90;98975.40;108819;1260;73803;-27
2024/03/09 13:54:29;;;;;;;4.80;2.90;;;;;;;11.38;32.35;98970.31;108921;1265;58892;-27
2024/03/09 13:56:58;;;;;;;5.70;3.00;;;;;;;10.88;33.30;98969.73;108812;1266;60354;-27